Terminal Aerodrome Forecast
Issued by NWS Quad Cities IA IL

Home | Current Version | Previous Version | Text Only | Print | Product List | Glossary On
Versions: 1 2 3 4 5 6 7 8 9 10 11 12 13 14 15 16 17 18 19 20 21 22 23 24 25 26 27 28 29 30 31 32 33 34 35 36 37 38 39 40 41 42
000
FTUS43 KDVN 262338
TAFDBQ
TAF
KDBQ 262338Z 2700/2724 04006KT P6SM VCSH OVC050
     FM270400 08005KT P6SM VCTS BKN050CB OVC090
      TEMPO 2705/2709 2SM TSRA BR BKN025CB OVC050
     FM270900 12006KT 6SM BR VCSH OVC030
     FM271600 20005KT P6SM FEW035 SCT250=

USA.gov is the U.S. government's official web portal to all federal, state and local government web resources and services.